createdAt,value
2022-08-23T00:01:24.293Z,56.70
2022-08-23T00:03:57.105Z,56.80
2022-08-23T00:06:26.824Z,56.90
2022-08-23T00:08:55.690Z,56.40
2022-08-23T00:11:33.141Z,56.90
2022-08-23T00:14:03.555Z,57.10
2022-08-23T00:16:32.246Z,57.20
2022-08-23T00:19:02.803Z,57.10
2022-08-23T00:21:31.619Z,57.20
2022-08-23T00:26:33.084Z,56.80
2022-08-23T00:29:01.404Z,57.30
2022-08-23T00:31:30.009Z,57.50
2022-08-23T00:33:58.704Z,57.50
2022-08-23T00:36:29.088Z,57.70
2022-08-23T00:38:57.617Z,57.70
2022-08-23T00:41:26.133Z,57.80
2022-08-23T00:44:13.749Z,58.00
2022-08-23T00:47:04.888Z,58.10
2022-08-23T00:49:34.782Z,58.40
2022-08-23T00:52:09.842Z,58.60
2022-08-23T00:54:41.339Z,58.90
2022-08-23T00:57:14.356Z,59.00
2022-08-23T00:59:44.230Z,59.10
2022-08-23T01:02:13.289Z,59.20
2022-08-23T01:04:45.491Z,59.40
2022-08-23T01:07:22.713Z,59.60
2022-08-23T01:09:55.286Z,59.60
2022-08-23T01:12:32.657Z,59.60
2022-08-23T01:15:05.233Z,59.70
2022-08-23T01:17:42.151Z,59.80
2022-08-23T01:20:16.774Z,59.80
2022-08-23T01:22:54.308Z,59.70
2022-08-23T01:25:25.930Z,59.70
2022-08-23T01:27:54.244Z,59.90
2022-08-23T01:30:26.273Z,59.80
2022-08-23T01:32:58.190Z,59.50
2022-08-23T01:35:35.132Z,60.00
2022-08-23T01:38:03.512Z,60.00
2022-08-23T01:40:34.246Z,60.00
2022-08-23T01:43:03.238Z,59.90
2022-08-23T01:45:32.557Z,60.10
2022-08-23T01:48:04.666Z,60.00
2022-08-23T01:53:03.941Z,60.10
2022-08-23T01:55:34.686Z,60.30
2022-08-23T01:58:06.543Z,60.40
2022-08-23T02:00:37.842Z,60.50
2022-08-23T02:03:07.378Z,60.50
2022-08-23T02:05:38.315Z,60.70
2022-08-23T02:08:21.888Z,60.10
2022-08-23T02:10:52.961Z,60.80
2022-08-23T02:13:21.575Z,60.80
2022-08-23T02:15:51.428Z,61.00
2022-08-23T02:18:21.429Z,61.50
2022-08-23T02:20:51.481Z,61.60
2022-08-23T02:23:21.009Z,61.60
2022-08-23T02:25:50.350Z,61.70
2022-08-23T02:28:22.659Z,61.70
2022-08-23T02:30:54.101Z,61.90
2022-08-23T02:33:22.508Z,61.90
2022-08-23T02:35:51.353Z,61.80
2022-08-23T02:38:21.263Z,62.00
2022-08-23T02:40:52.822Z,62.00
2022-08-23T02:43:30.931Z,62.30
2022-08-23T02:45:59.823Z,62.00
2022-08-23T02:48:54.399Z,62.00
2022-08-23T02:51:22.895Z,62.80
2022-08-23T02:53:52.242Z,62.90
2022-08-23T02:56:22.008Z,63.00
2022-08-23T02:58:53.971Z,63.10
2022-08-23T03:01:27.480Z,63.30
2022-08-23T03:03:56.669Z,63.50
2022-08-23T03:06:26.598Z,63.80
2022-08-23T03:08:55.727Z,64.20
2022-08-23T03:11:25.404Z,63.90
2022-08-23T03:13:57.340Z,65.00
2022-08-23T03:16:26.973Z,64.80
2022-08-23T03:18:56.216Z,63.30
2022-08-23T03:21:25.116Z,64.80
2022-08-23T03:23:53.828Z,65.60
2022-08-23T03:26:24.660Z,65.70
2022-08-23T03:28:56.751Z,66.10
2022-08-23T03:31:25.406Z,66.50
2022-08-23T03:33:57.644Z,66.10
2022-08-23T03:36:28.445Z,66.90
2022-08-23T03:39:00.057Z,67.20
2022-08-23T03:41:30.495Z,66.70
2022-08-23T03:44:00.310Z,67.70
2022-08-23T03:46:33.355Z,67.70
2022-08-23T03:49:03.698Z,67.80
2022-08-23T03:51:33.626Z,68.50
2022-08-23T03:54:02.962Z,67.80
2022-08-23T03:56:34.446Z,67.90
2022-08-23T03:59:11.045Z,67.90
2022-08-23T04:01:39.598Z,68.20
2022-08-23T04:04:08.350Z,68.00
2022-08-23T04:06:37.417Z,68.10
2022-08-23T04:09:05.945Z,68.40
2022-08-23T04:11:34.685Z,68.10
2022-08-23T04:19:08.662Z,69.30
2022-08-23T04:21:39.385Z,69.30
2022-08-23T04:24:09.398Z,70.00
2022-08-23T04:26:37.873Z,69.90
2022-08-23T04:29:08.519Z,70.00
2022-08-23T04:31:38.922Z,69.80
2022-08-23T04:34:09.542Z,69.40
2022-08-23T04:36:40.950Z,70.00
2022-08-23T04:39:14.315Z,69.90
2022-08-23T04:41:59.994Z,69.90
2022-08-23T04:44:30.104Z,69.80
2022-08-23T04:46:58.802Z,69.50
2022-08-23T04:49:27.250Z,69.80
2022-08-23T04:51:56.169Z,69.80
2022-08-23T04:54:24.922Z,69.60
2022-08-23T04:56:53.276Z,69.60
2022-08-23T04:59:24.007Z,69.40
2022-08-23T05:04:22.694Z,68.70
2022-08-23T05:06:52.252Z,68.50
2022-08-23T05:11:50.571Z,68.60
2022-08-23T05:14:20.983Z,69.00
2022-08-23T05:16:49.713Z,69.00
2022-08-23T05:19:19.597Z,68.90
2022-08-23T05:21:47.884Z,69.00
2022-08-23T05:24:16.144Z,69.00
2022-08-23T05:26:44.738Z,68.70
2022-08-23T05:29:12.933Z,69.50
2022-08-23T05:31:43.774Z,69.30
2022-08-23T05:34:17.605Z,68.90
2022-08-23T05:36:55.197Z,69.30
2022-08-23T05:39:30.363Z,71.30
2022-08-23T05:42:04.742Z,69.60
2022-08-23T05:44:34.523Z,69.70
2022-08-23T05:47:11.265Z,69.60
2022-08-23T05:49:42.754Z,69.40
2022-08-23T05:52:14.437Z,70.40
2022-08-23T05:59:50.314Z,68.80
2022-08-23T06:02:21.329Z,69.70
2022-08-23T06:04:57.594Z,70.60
2022-08-23T06:10:30.555Z,69.90
2022-08-23T06:12:59.769Z,69.80
2022-08-23T06:15:28.788Z,68.40
2022-08-23T06:22:06.181Z,67.20
2022-08-23T06:28:06.093Z,68.10
2022-08-23T06:30:59.565Z,65.50
2022-08-23T06:33:42.443Z,70.40
2022-08-23T06:48:20.480Z,64.80
2022-08-23T07:01:52.680Z,68.00
2022-08-23T07:04:26.381Z,62.60
2022-08-23T07:06:58.972Z,57.80
2022-08-23T07:21:06.110Z,48.10
2022-08-23T07:23:37.757Z,49.00
2022-08-23T07:26:13.419Z,47.10
2022-08-23T07:29:06.843Z,46.60
2022-08-23T08:04:33.487Z,49.50
2022-08-23T08:07:22.331Z,50.20
2022-08-23T08:21:08.111Z,46.50
2022-08-23T08:24:17.489Z,48.70
2022-08-23T08:30:40.229Z,46.40
2022-08-23T08:33:10.714Z,47.10
2022-08-23T08:35:42.996Z,49.10
2022-08-23T08:38:23.450Z,47.80
2022-08-23T08:48:29.752Z,46.40
2022-08-23T08:52:23.532Z,48.40
2022-08-23T08:54:57.809Z,46.10
2022-08-23T08:57:46.654Z,48.20
2022-08-23T09:00:20.451Z,48.80
2022-08-23T09:02:50.414Z,47.10
2022-08-23T09:05:31.547Z,47.30
2022-08-23T09:08:18.431Z,46.70
2022-08-23T09:10:54.375Z,47.10
2022-08-23T09:14:02.311Z,47.10
2022-08-23T09:16:40.827Z,47.00
2022-08-23T09:19:09.907Z,47.70
2022-08-23T09:21:45.972Z,47.30
2022-08-23T09:24:15.040Z,46.70
2022-08-23T09:26:45.509Z,47.20
2022-08-23T09:29:21.169Z,48.40
2022-08-23T09:31:58.215Z,47.70
2022-08-23T09:34:42.219Z,47.00
2022-08-23T09:37:20.836Z,48.00
2022-08-23T09:42:38.399Z,48.30
2022-08-23T09:45:09.350Z,47.90
2022-08-23T09:47:47.754Z,46.80
2022-08-23T09:50:43.459Z,47.30
2022-08-23T09:53:29.722Z,47.90
2022-08-23T09:56:01.489Z,47.60
2022-08-23T09:58:39.240Z,48.50
2022-08-23T10:01:16.240Z,47.90
2022-08-23T10:03:51.981Z,46.50
2022-08-23T10:06:34.184Z,48.00
2022-08-23T10:09:06.425Z,46.20
2022-08-23T10:11:39.741Z,47.60
2022-08-23T10:14:09.448Z,46.10
2022-08-23T10:16:42.885Z,46.10
2022-08-23T10:19:19.042Z,46.60
2022-08-23T10:21:57.353Z,46.40
2022-08-23T10:24:40.837Z,46.20
2022-08-23T10:27:37.471Z,46.70
2022-08-23T10:30:13.225Z,46.00
2022-08-23T10:32:52.526Z,46.30
2022-08-23T10:35:31.179Z,46.90
2022-08-23T10:38:36.049Z,45.30
2022-08-23T10:41:23.078Z,45.70
2022-08-23T10:44:02.839Z,44.80
2022-08-23T10:46:38.452Z,44.80
2022-08-23T10:49:08.250Z,44.90
2022-08-23T10:51:40.944Z,44.90
2022-08-23T10:57:04.399Z,46.20
2022-08-23T11:03:29.047Z,46.00
2022-08-23T11:06:44.757Z,46.10
2022-08-23T11:09:40.512Z,45.30
2022-08-23T11:12:20.240Z,45.30
2022-08-23T11:14:59.925Z,45.10
2022-08-23T11:17:53.741Z,44.20
2022-08-23T11:20:55.965Z,45.70
2022-08-23T11:23:52.595Z,45.80
2022-08-23T11:27:07.532Z,43.70
2022-08-23T11:29:43.479Z,44.60
2022-08-23T11:32:44.070Z,44.50
2022-08-23T11:35:43.008Z,43.30
2022-08-23T11:38:13.584Z,44.00
2022-08-23T11:41:00.132Z,42.60
2022-08-23T11:43:32.996Z,44.10
2022-08-23T11:46:53.847Z,43.60
2022-08-23T11:49:52.105Z,44.00
2022-08-23T11:52:36.359Z,44.30
2022-08-23T11:55:39.595Z,43.90
2022-08-23T11:58:23.541Z,44.10
2022-08-23T12:01:06.387Z,44.50
2022-08-23T12:03:45.883Z,45.30
2022-08-23T12:06:50.724Z,44.80
2022-08-23T12:09:56.787Z,44.80
2022-08-23T12:48:02.151Z,41.30
2022-08-23T12:49:59.691Z,41.90
2022-08-23T12:52:30.606Z,43.30
2022-08-23T12:54:59.453Z,44.00
2022-08-23T12:57:38.918Z,42.70
2022-08-23T13:00:19.396Z,42.70
2022-08-23T13:02:55.087Z,42.40
2022-08-23T13:05:35.103Z,42.20
2022-08-23T13:08:07.853Z,43.00
2022-08-23T13:10:38.812Z,42.80
2022-08-23T13:13:09.347Z,42.60
2022-08-23T13:15:45.409Z,42.60
2022-08-23T13:18:32.227Z,42.30
2022-08-23T13:21:25.754Z,42.00
2022-08-23T13:23:56.244Z,43.10
2022-08-23T13:26:27.688Z,42.40
2022-08-23T13:29:12.607Z,42.50
2022-08-23T13:31:52.529Z,43.90
2022-08-23T13:34:47.042Z,43.40
2022-08-23T13:37:29.026Z,42.20
2022-08-23T13:40:06.054Z,41.20
2022-08-23T13:47:12.972Z,42.50
2022-08-23T13:49:41.447Z,41.90
2022-08-23T13:52:46.002Z,43.40
2022-08-23T13:55:26.519Z,43.60
2022-08-23T13:57:57.778Z,43.70
2022-08-23T14:00:26.853Z,44.50
2022-08-23T14:05:38.960Z,44.00
2022-08-23T14:08:09.893Z,45.30
2022-08-23T14:10:40.012Z,43.90
2022-08-23T14:13:14.428Z,42.80
2022-08-23T14:18:36.552Z,43.50
2022-08-23T14:21:06.736Z,43.20
2022-08-23T14:23:35.580Z,43.30
2022-08-23T14:26:05.581Z,43.60
2022-08-23T14:28:34.841Z,43.60
2022-08-23T14:31:02.989Z,43.10
2022-08-23T14:33:33.910Z,43.40
2022-08-23T14:36:02.575Z,43.20
2022-08-23T14:38:30.860Z,43.60
2022-08-23T14:41:03.341Z,42.30
2022-08-23T14:43:33.248Z,42.50
2022-08-23T14:46:02.867Z,42.20
2022-08-23T14:48:31.230Z,42.40
2022-08-23T15:29:20.916Z,43.40
2022-08-23T15:31:50.306Z,43.70
2022-08-23T15:58:13.642Z,44.00
2022-08-23T16:05:41.990Z,43.30
2022-08-23T16:08:41.909Z,41.90
2022-08-23T16:11:13.021Z,43.40
2022-08-23T16:24:47.609Z,41.50
2022-08-23T16:35:16.056Z,40.50
2022-08-23T17:13:02.115Z,41.90
2022-08-23T17:16:08.117Z,42.30
2022-08-23T17:18:36.435Z,41.40
2022-08-23T17:21:05.412Z,43.50
2022-08-23T17:23:53.922Z,42.60
2022-08-23T17:33:45.704Z,43.70
2022-08-23T19:19:44.398Z,49.10
2022-08-23T20:39:55.242Z,51.10
2022-08-23T20:42:23.694Z,52.20
2022-08-23T20:44:52.095Z,52.90
2022-08-23T20:49:49.107Z,51.40
2022-08-23T20:52:18.694Z,51.50
2022-08-23T20:57:17.238Z,51.20
2022-08-23T21:02:14.441Z,50.90
2022-08-23T21:14:42.448Z,51.40
2022-08-23T21:17:10.829Z,51.80
2022-08-23T21:19:39.511Z,51.90
2022-08-23T21:22:07.866Z,52.10
2022-08-23T21:29:40.406Z,51.90
2022-08-23T21:34:37.791Z,52.00
2022-08-23T21:37:07.895Z,52.00
2022-08-23T21:39:36.342Z,52.10
2022-08-23T21:42:15.076Z,51.40
2022-08-23T21:45:23.315Z,52.20
2022-08-23T21:47:52.295Z,52.20
2022-08-23T21:50:28.565Z,53.20
2022-08-23T21:53:11.327Z,52.30
2022-08-23T21:55:41.600Z,54.10
2022-08-23T21:58:11.377Z,53.80
2022-08-23T22:00:46.523Z,51.60
2022-08-23T22:08:41.931Z,53.40
2022-08-23T22:11:16.069Z,53.30
2022-08-23T22:14:05.254Z,53.70
2022-08-23T22:16:37.705Z,55.20
2022-08-23T22:21:39.987Z,54.00
2022-08-23T22:24:10.700Z,56.20
2022-08-23T22:31:44.112Z,51.40
2022-08-23T22:48:21.868Z,54.20
2022-08-23T22:53:51.436Z,54.00
2022-08-23T22:56:23.099Z,54.00
2022-08-23T22:59:27.628Z,54.40
2022-08-23T23:02:02.551Z,55.70
2022-08-23T23:04:37.542Z,54.10
2022-08-23T23:09:38.801Z,54.00
2022-08-23T23:20:01.831Z,53.90
2022-08-23T23:22:32.130Z,54.00
2022-08-23T23:25:07.138Z,53.90
2022-08-23T23:27:37.619Z,54.30
2022-08-23T23:30:08.923Z,54.60
2022-08-23T23:58:04.670Z,55.90
